Terminal Aerodrome Forecast
Issued by NWS Memphis, TN

Current Version | Previous Version | Text Only | Print | Product List | Glossary On
Versions: 1 2 3 4 5 6 7 8 9 10 11 12 13 14 15 16 17 18 19 20 21 22 23 24 25 26 27 28 29
000
FTUS44 KMEG 161130
TAFMEM
TAF
KMEM 161130Z 1612/1712 09004KT 6SM BR BKN045 OVC080
     FM161500 16006KT P6SM VCSH SCT003 BKN045 OVC080
      TEMPO 1616/1620 5SM -RA OVC003
     FM162000 18010G15KT P6SM VCSH BKN050 BKN100
     FM170100 18012G20KT 2SM SHRA BR VCTS OVC008CB=

USA.gov is the U.S. government's official web portal to all federal, state and local government web resources and services.